createdAt,value
2018-07-20T00:00:15.393Z,97657.44
2018-07-20T00:02:43.420Z,97663.22
2018-07-20T00:05:11.621Z,97667.38
2018-07-20T00:07:39.546Z,97668.99
2018-07-20T00:10:07.539Z,97668.58
2018-07-20T00:12:35.626Z,97669.81
2018-07-20T00:15:03.755Z,97668.44
2018-07-20T00:17:32.002Z,97667.91
2018-07-20T00:20:00.058Z,97670.14
2018-07-20T00:22:28.045Z,97663.68
2018-07-20T00:24:56.065Z,97670.55
2018-07-20T00:27:24.074Z,97680.29
2018-07-20T00:29:52.042Z,97671.28
2018-07-20T00:32:20.023Z,97680.31
2018-07-20T00:34:47.965Z,97685.89
2018-07-20T00:37:15.998Z,97678.70
2018-07-20T00:39:44.492Z,97683.48
2018-07-20T00:42:12.465Z,97672.95
2018-07-20T00:44:40.479Z,97683.48
2018-07-20T00:47:08.403Z,97660.19
2018-07-20T00:49:36.407Z,97651.98
2018-07-20T00:52:04.567Z,97654.77
2018-07-20T00:54:32.509Z,97659.63
2018-07-20T00:57:00.454Z,97651.47
2018-07-20T00:59:28.885Z,97636.48
2018-07-20T01:01:57.275Z,97646.96
2018-07-20T01:04:25.199Z,97644.38
2018-07-20T01:06:53.196Z,97665.44
2018-07-20T01:09:21.288Z,97656.41
2018-07-20T01:11:49.266Z,97651.19
2018-07-20T01:14:17.243Z,97652.73
2018-07-20T01:16:45.287Z,97651.45
2018-07-20T01:19:13.244Z,97666.80
2018-07-20T01:21:41.177Z,97662.66
2018-07-20T01:24:09.157Z,97661.36
2018-07-20T01:26:37.217Z,97663.89
2018-07-20T01:29:05.159Z,97652.91
2018-07-20T01:31:33.120Z,97664.94
2018-07-20T01:34:01.456Z,97653.42
2018-07-20T01:36:29.525Z,97651.92
2018-07-20T01:38:57.507Z,97658.95
2018-07-20T01:41:25.539Z,97673.72
2018-07-20T01:43:53.464Z,97654.70
2018-07-20T01:46:21.472Z,97636.69
2018-07-20T01:48:49.740Z,97638.07
2018-07-20T01:51:17.661Z,97643.38
2018-07-20T01:53:45.619Z,97631.33
2018-07-20T01:56:13.693Z,97634.05
2018-07-20T01:58:41.611Z,97637.92
2018-07-20T02:01:09.616Z,97638.69
2018-07-20T02:03:37.590Z,97649.84
2018-07-20T02:06:05.905Z,97635.84
2018-07-20T02:08:33.900Z,97648.56
2018-07-20T02:11:01.952Z,97638.15
2018-07-20T02:13:30.014Z,97643.45
2018-07-20T02:15:58.473Z,97640.00
2018-07-20T02:18:26.621Z,97636.03
2018-07-20T02:20:54.616Z,97634.89
2018-07-20T02:23:23.136Z,97656.38
2018-07-20T02:25:51.137Z,97631.37
2018-07-20T02:28:19.131Z,97631.84
2018-07-20T02:30:47.137Z,97627.24
2018-07-20T02:33:15.083Z,97624.80
2018-07-20T02:35:43.046Z,97634.58
2018-07-20T02:38:11.046Z,97637.72
2018-07-20T02:40:39.004Z,97652.53
2018-07-20T02:43:06.973Z,97642.88
2018-07-20T02:45:34.921Z,97656.41
2018-07-20T02:48:03.071Z,97674.31
2018-07-20T02:50:31.036Z,97664.16
2018-07-20T02:52:59.007Z,97648.00
2018-07-20T02:55:26.917Z,97652.89
2018-07-20T02:57:55.063Z,97671.56
2018-07-20T03:00:23.126Z,97651.92
2018-07-20T03:02:51.025Z,97679.08
2018-07-20T03:05:18.968Z,97674.06
2018-07-20T03:07:47.007Z,97687.19
2018-07-20T03:10:15.052Z,97694.34
2018-07-20T03:12:43.144Z,97689.23
2018-07-20T03:15:11.099Z,97695.02
2018-07-20T03:17:39.236Z,97691.52
2018-07-20T03:20:07.196Z,97690.78
2018-07-20T03:22:35.273Z,97689.05
2018-07-20T03:25:03.713Z,97690.05
2018-07-20T03:27:31.626Z,97678.47
2018-07-20T03:29:59.676Z,97676.63
2018-07-20T03:32:27.793Z,97677.45
2018-07-20T03:34:55.831Z,97672.70
2018-07-20T03:37:24.540Z,97679.20
2018-07-20T03:39:52.681Z,97712.74
2018-07-20T03:42:20.699Z,97697.38
2018-07-20T03:44:48.759Z,97710.21
2018-07-20T03:47:16.787Z,97698.59
2018-07-20T03:49:45.256Z,97699.61
2018-07-20T03:52:13.269Z,97729.17
2018-07-20T03:54:41.254Z,97711.91
2018-07-20T03:57:09.336Z,97725.45
2018-07-20T03:59:37.343Z,97726.22
2018-07-20T04:02:05.338Z,97717.55
2018-07-20T04:04:33.354Z,97725.56
2018-07-20T04:07:01.417Z,97726.12
2018-07-20T04:09:29.434Z,97718.52
2018-07-20T04:11:57.534Z,97700.83
2018-07-20T04:14:25.565Z,97720.52
2018-07-20T04:16:53.562Z,97735.99
2018-07-20T04:19:21.726Z,97724.63
2018-07-20T04:21:49.934Z,97716.88
2018-07-20T04:24:17.945Z,97715.88
2018-07-20T04:26:45.900Z,97707.48
2018-07-20T04:29:13.883Z,97722.42
2018-07-20T04:31:41.965Z,97699.09
2018-07-20T04:34:09.928Z,97736.41
2018-07-20T04:36:38.033Z,97693.48
2018-07-20T04:39:10.108Z,97712.65
2018-07-20T04:41:38.368Z,97714.64
2018-07-20T04:44:06.401Z,97735.41
2018-07-20T04:46:34.383Z,97736.80
2018-07-20T04:49:02.503Z,97733.14
2018-07-20T04:51:30.491Z,97742.42
2018-07-20T04:53:58.522Z,97717.91
2018-07-20T04:56:26.821Z,97743.53
2018-07-20T04:58:54.835Z,97740.16
2018-07-20T05:01:22.976Z,97737.90
2018-07-20T05:03:51.250Z,97755.16
2018-07-20T05:06:19.319Z,97752.25
2018-07-20T05:08:47.379Z,97749.13
2018-07-20T05:11:15.592Z,97752.16
2018-07-20T05:13:43.656Z,97770.63
2018-07-20T05:16:11.899Z,97766.28
2018-07-20T05:18:39.959Z,97765.24
2018-07-20T05:21:08.056Z,97763.38
2018-07-20T05:23:37.025Z,97756.54
2018-07-20T05:26:05.082Z,97759.71
2018-07-20T05:28:33.170Z,97760.80
2018-07-20T05:31:01.246Z,97751.98
2018-07-20T05:33:29.192Z,97774.59
2018-07-20T05:35:57.170Z,97762.31
2018-07-20T05:38:25.422Z,97768.06
2018-07-20T05:40:53.836Z,97751.08
2018-07-20T05:43:21.859Z,97755.10
2018-07-20T05:45:49.821Z,97754.95
2018-07-20T05:48:17.948Z,97748.23
2018-07-20T05:50:45.935Z,97753.13
2018-07-20T05:53:13.932Z,97754.25
2018-07-20T05:55:41.954Z,97751.45
2018-07-20T05:58:10.056Z,97759.13
2018-07-20T06:00:38.254Z,97755.57
2018-07-20T06:03:06.316Z,97751.38
2018-07-20T06:05:34.404Z,97757.05
2018-07-20T06:08:02.694Z,97750.53
2018-07-20T06:10:31.172Z,97758.45
2018-07-20T06:12:59.478Z,97740.81
2018-07-20T06:15:27.474Z,97752.17
2018-07-20T06:17:56.407Z,97748.88
2018-07-20T06:20:24.446Z,97745.90
2018-07-20T06:22:52.503Z,97744.97
2018-07-20T06:25:20.654Z,97741.84
2018-07-20T06:27:48.660Z,97750.95
2018-07-20T06:30:16.704Z,97749.97
2018-07-20T06:32:44.726Z,97742.91
2018-07-20T06:35:12.793Z,97751.61
2018-07-20T06:37:40.982Z,97748.73
2018-07-20T06:40:09.110Z,97749.40
2018-07-20T06:42:37.213Z,97749.86
2018-07-20T06:45:05.708Z,97755.66
2018-07-20T06:47:33.696Z,97750.56
2018-07-20T06:50:05.935Z,97756.08
2018-07-20T06:52:34.011Z,97759.51
2018-07-20T06:55:01.995Z,97754.31
2018-07-20T06:57:29.947Z,97764.85
2018-07-20T06:59:58.038Z,97768.33
2018-07-20T07:02:25.988Z,97773.91
2018-07-20T07:04:54.020Z,97784.44
2018-07-20T07:07:22.181Z,97777.92
2018-07-20T07:09:50.161Z,97771.12
2018-07-20T07:12:18.148Z,97776.99
2018-07-20T07:14:46.218Z,97790.16
2018-07-20T07:17:14.263Z,97773.67
2018-07-20T07:19:42.369Z,97788.97
2018-07-20T07:22:10.454Z,97781.41
2018-07-20T07:24:38.456Z,97790.09
2018-07-20T07:27:06.496Z,97785.14
2018-07-20T07:29:34.549Z,97783.48
2018-07-20T07:32:02.667Z,97794.14
2018-07-20T07:34:30.638Z,97794.89
2018-07-20T07:36:58.620Z,97783.63
2018-07-20T07:39:26.691Z,97797.02
2018-07-20T07:41:54.718Z,97800.23
2018-07-20T07:44:22.767Z,97787.34
2018-07-20T07:46:50.859Z,97807.45
2018-07-20T07:49:19.036Z,97783.05
2018-07-20T07:51:47.271Z,97777.00
2018-07-20T07:54:15.433Z,97768.62
2018-07-20T07:56:43.416Z,97781.08
2018-07-20T07:59:11.447Z,97772.91
2018-07-20T08:01:39.487Z,97775.30
2018-07-20T08:04:07.523Z,97782.05
2018-07-20T08:06:35.628Z,97778.06
2018-07-20T08:09:05.733Z,97800.20
2018-07-20T08:11:33.863Z,97796.16
2018-07-20T08:14:01.820Z,97795.55
2018-07-20T08:16:29.731Z,97787.70
2018-07-20T08:18:57.720Z,97797.23
2018-07-20T08:21:25.799Z,97799.57
2018-07-20T08:23:53.954Z,97812.55
2018-07-20T08:26:22.115Z,97797.75
2018-07-20T08:28:50.180Z,97820.36
2018-07-20T08:31:18.269Z,97811.36
2018-07-20T08:33:46.441Z,97823.66
2018-07-20T08:36:14.510Z,97818.06
2018-07-20T08:38:42.543Z,97821.95
2018-07-20T08:41:11.018Z,97814.51
2018-07-20T08:43:39.048Z,97816.05
2018-07-20T08:46:07.012Z,97807.69
2018-07-20T08:48:35.114Z,97812.23
2018-07-20T08:51:03.187Z,97797.84
2018-07-20T08:53:31.655Z,97821.08
2018-07-20T08:55:59.823Z,97824.62
2018-07-20T08:58:27.877Z,97834.98
2018-07-20T09:00:55.871Z,97809.52
2018-07-20T09:03:23.927Z,97816.09
2018-07-20T09:05:51.953Z,97813.48
2018-07-20T09:08:20.498Z,97819.39
2018-07-20T09:10:48.563Z,97813.48
2018-07-20T09:13:16.662Z,97816.75
2018-07-20T09:15:44.659Z,97817.95
2018-07-20T09:18:12.802Z,97838.00
2018-07-20T09:20:40.992Z,97829.28
2018-07-20T09:23:09.157Z,97874.21
2018-07-20T09:25:37.203Z,97829.45
2018-07-20T09:28:05.190Z,97821.17
2018-07-20T09:30:33.651Z,97841.59
2018-07-20T09:33:01.822Z,97831.81
2018-07-20T09:35:29.802Z,97826.34
2018-07-20T09:37:58.345Z,97819.84
2018-07-20T09:40:26.485Z,97819.94
2018-07-20T09:42:54.593Z,97822.86
2018-07-20T09:45:22.673Z,97829.70
2018-07-20T09:47:50.775Z,97828.25
2018-07-20T09:50:27.929Z,97817.36
2018-07-20T09:52:55.913Z,97821.14
2018-07-20T09:55:23.988Z,97808.89
2018-07-20T09:57:52.026Z,97823.81
2018-07-20T10:00:25.303Z,97828.05
2018-07-20T10:02:53.356Z,97818.22
2018-07-20T10:05:21.515Z,97816.91
2018-07-20T10:07:49.531Z,97814.03
2018-07-20T10:10:17.607Z,97813.77
2018-07-20T10:12:45.773Z,97819.77
2018-07-20T10:15:14.070Z,97821.55
2018-07-20T10:17:42.125Z,97809.47
2018-07-20T10:20:10.151Z,97804.45
2018-07-20T10:22:38.180Z,97805.27
2018-07-20T10:25:06.205Z,97813.91
2018-07-20T10:27:34.335Z,97813.94
2018-07-20T10:30:02.485Z,97802.92
2018-07-20T10:32:30.461Z,97812.33
2018-07-20T10:34:58.726Z,97805.25
2018-07-20T10:37:26.705Z,97809.05
2018-07-20T10:39:54.691Z,97806.84
2018-07-20T10:42:22.645Z,97804.63
2018-07-20T10:44:50.727Z,97800.48
2018-07-20T10:47:18.833Z,97804.27
2018-07-20T10:49:46.983Z,97794.38
2018-07-20T10:52:15.158Z,97786.20
2018-07-20T10:54:43.225Z,97790.08
2018-07-20T10:57:11.208Z,97787.98
2018-07-20T10:59:39.258Z,97776.70
2018-07-20T11:02:07.302Z,97777.95
2018-07-20T11:04:35.310Z,97787.41
2018-07-20T11:07:03.287Z,97785.37
2018-07-20T11:09:31.293Z,97784.15
2018-07-20T11:11:59.498Z,97772.77
2018-07-20T11:14:27.420Z,97788.88
2018-07-20T11:16:55.464Z,97789.73
2018-07-20T11:19:23.384Z,97784.23
2018-07-20T11:21:51.372Z,97789.48
2018-07-20T11:24:19.378Z,97783.25
2018-07-20T11:26:47.296Z,97789.61
2018-07-20T11:29:15.355Z,97798.72
2018-07-20T11:31:43.349Z,97781.09
2018-07-20T11:34:11.338Z,97808.91
2018-07-20T11:36:39.529Z,97786.13
2018-07-20T11:39:08.782Z,97785.34
2018-07-20T11:41:37.331Z,97804.41
2018-07-20T11:44:05.387Z,97786.73
2018-07-20T11:46:33.426Z,97794.88
2018-07-20T11:49:01.377Z,97799.28
2018-07-20T11:51:29.390Z,97792.22
2018-07-20T11:53:57.386Z,97802.91
2018-07-20T11:56:25.655Z,97786.78
2018-07-20T11:58:53.709Z,97788.96
2018-07-20T12:01:21.773Z,97782.98
2018-07-20T12:03:49.838Z,97790.34
2018-07-20T12:06:17.817Z,97782.37
2018-07-20T12:08:45.873Z,97778.68
2018-07-20T12:11:13.835Z,97776.15
2018-07-20T12:13:41.941Z,97772.64
2018-07-20T12:16:09.966Z,97773.98
2018-07-20T12:18:38.018Z,97762.16
2018-07-20T12:21:06.266Z,97759.37
2018-07-20T12:23:34.298Z,97758.06
2018-07-20T12:26:02.253Z,97750.75
2018-07-20T12:28:30.232Z,97759.69
2018-07-20T12:30:58.212Z,97767.37
2018-07-20T12:33:26.323Z,97755.22
2018-07-20T12:35:54.381Z,97751.00
2018-07-20T12:38:22.330Z,97756.09
2018-07-20T12:40:50.324Z,97752.55
2018-07-20T12:43:18.379Z,97756.95
2018-07-20T12:45:46.400Z,97751.22
2018-07-20T12:48:14.372Z,97770.83
2018-07-20T12:50:42.422Z,97757.16
2018-07-20T12:53:10.518Z,97768.58
2018-07-20T12:55:38.553Z,97768.45
2018-07-20T12:58:06.590Z,97762.21
2018-07-20T13:00:34.594Z,97748.86
2018-07-20T13:03:02.587Z,97755.33
2018-07-20T13:05:30.952Z,97761.78
2018-07-20T13:07:58.995Z,97766.91
2018-07-20T13:10:27.022Z,97755.05
2018-07-20T13:12:55.050Z,97760.28
2018-07-20T13:15:23.958Z,97749.56
2018-07-20T13:17:51.961Z,97747.58
2018-07-20T13:20:19.955Z,97753.25
2018-07-20T13:22:48.048Z,97760.78
2018-07-20T13:25:16.064Z,97766.29
2018-07-20T13:27:44.060Z,97764.48
2018-07-20T13:30:12.034Z,97765.20
2018-07-20T13:32:40.210Z,97760.23
2018-07-20T13:35:08.548Z,97760.51
2018-07-20T13:37:36.499Z,97754.09
2018-07-20T13:40:05.384Z,97752.07
2018-07-20T13:42:33.365Z,97753.48
2018-07-20T13:45:01.412Z,97742.03
2018-07-20T13:47:29.519Z,97752.64
2018-07-20T13:49:57.498Z,97745.59
2018-07-20T13:52:25.526Z,97745.94
2018-07-20T13:54:53.574Z,97737.26
2018-07-20T13:57:21.681Z,97742.89
2018-07-20T13:59:49.872Z,97751.53
2018-07-20T14:02:17.876Z,97744.66
2018-07-20T14:04:45.943Z,97739.05
2018-07-20T14:07:13.920Z,97742.51
2018-07-20T14:09:41.837Z,97735.41
2018-07-20T14:12:09.936Z,97734.63
2018-07-20T14:14:38.053Z,97735.44
2018-07-20T14:17:06.027Z,97742.83
2018-07-20T14:19:33.906Z,97745.14
2018-07-20T14:22:01.894Z,97742.95
2018-07-20T14:24:29.971Z,97746.97
2018-07-20T14:26:58.008Z,97749.80
2018-07-20T14:29:26.075Z,97752.86
2018-07-20T14:31:54.221Z,97765.69
2018-07-20T14:34:22.316Z,97762.03
2018-07-20T14:36:50.562Z,97763.11
2018-07-20T14:39:18.751Z,97777.30
2018-07-20T14:41:46.824Z,97771.84
2018-07-20T14:44:15.057Z,97770.96
2018-07-20T14:46:43.081Z,97781.53
2018-07-20T14:49:11.262Z,97774.83
2018-07-20T14:51:39.343Z,97776.73
2018-07-20T14:54:07.407Z,97768.34
2018-07-20T14:56:35.355Z,97774.91
2018-07-20T14:59:04.090Z,97782.08
2018-07-20T15:01:32.194Z,97796.58
2018-07-20T15:04:00.268Z,97780.45
2018-07-20T15:06:28.341Z,97774.67
2018-07-20T15:08:56.376Z,97769.10
2018-07-20T15:11:24.417Z,97798.75
2018-07-20T15:13:52.607Z,97762.59
2018-07-20T15:16:20.746Z,97770.73
2018-07-20T15:18:49.788Z,97757.27
2018-07-20T15:21:18.262Z,97760.54
2018-07-20T15:23:46.421Z,97754.20
2018-07-20T15:26:14.628Z,97765.41
2018-07-20T15:28:42.622Z,97749.10
2018-07-20T15:31:10.816Z,97759.28
2018-07-20T15:33:39.211Z,97757.52
2018-07-20T15:36:07.214Z,97758.92
2018-07-20T15:38:35.265Z,97744.44
2018-07-20T15:41:03.395Z,97754.72
2018-07-20T15:43:31.370Z,97773.00
2018-07-20T15:46:05.967Z,97751.75
2018-07-20T15:48:28.107Z,97768.27
2018-07-20T15:50:56.104Z,97757.48
2018-07-20T15:53:39.116Z,97761.67
2018-07-20T15:55:52.169Z,97775.02
2018-07-20T15:58:20.211Z,97782.52
2018-07-20T16:00:48.164Z,97773.04
2018-07-20T16:03:16.149Z,97775.72
2018-07-20T16:05:44.223Z,97782.62
2018-07-20T16:08:12.408Z,97778.16
2018-07-20T16:10:40.738Z,97759.42
2018-07-20T16:13:09.216Z,97773.53
2018-07-20T16:15:37.185Z,97787.88
2018-07-20T16:18:05.632Z,97779.23
2018-07-20T16:20:33.718Z,97796.74
2018-07-20T16:23:01.778Z,97782.18
2018-07-20T16:25:29.916Z,97782.37
2018-07-20T16:27:57.961Z,97767.17
2018-07-20T16:30:26.032Z,97782.99
2018-07-20T16:32:54.188Z,97776.86
2018-07-20T16:35:22.207Z,97772.57
2018-07-20T16:37:50.140Z,97802.20
2018-07-20T16:40:18.416Z,97788.17
2018-07-20T16:42:46.382Z,97802.09
2018-07-20T16:45:14.352Z,97785.68
2018-07-20T16:47:42.404Z,97805.41
2018-07-20T16:50:10.488Z,97798.73
2018-07-20T16:52:38.524Z,97812.05
2018-07-20T16:55:06.566Z,97801.96
2018-07-20T16:57:34.607Z,97814.77
2018-07-20T17:00:03.814Z,97812.17
2018-07-20T17:02:31.797Z,97813.73
2018-07-20T17:04:59.841Z,97801.31
2018-07-20T17:07:28.143Z,97800.14
2018-07-20T17:09:56.194Z,97813.92
2018-07-20T17:12:24.112Z,97794.78
2018-07-20T17:14:52.160Z,97795.23
2018-07-20T17:17:20.265Z,97788.60
2018-07-20T17:19:48.800Z,97796.66
2018-07-20T17:22:16.854Z,97786.78
2018-07-20T17:24:44.855Z,97795.23
2018-07-20T17:27:12.998Z,97783.20
2018-07-20T17:29:41.138Z,97785.80
2018-07-20T17:32:09.062Z,97793.93
2018-07-20T17:34:36.981Z,97789.34
2018-07-20T17:37:05.031Z,97788.66
2018-07-20T17:39:33.155Z,97803.28
2018-07-20T17:42:01.172Z,97816.63
2018-07-20T17:44:29.177Z,97791.06
2018-07-20T17:46:58.633Z,97799.48
2018-07-20T17:49:26.666Z,97813.33
2018-07-20T17:51:54.992Z,97800.38
2018-07-20T17:54:23.054Z,97818.12
2018-07-20T17:56:51.070Z,97819.56
2018-07-20T17:59:19.562Z,97825.25
2018-07-20T18:01:47.572Z,97820.72
2018-07-20T18:04:15.640Z,97835.02
2018-07-20T18:06:43.687Z,97827.46
2018-07-20T18:09:11.722Z,97826.48
2018-07-20T18:11:39.893Z,97826.66
2018-07-20T18:14:08.083Z,97836.34
2018-07-20T18:16:36.056Z,97833.30
2018-07-20T18:19:04.211Z,97827.25
2018-07-20T18:21:32.305Z,97827.89
2018-07-20T18:24:00.520Z,97828.17
2018-07-20T18:26:28.585Z,97823.50
2018-07-20T18:28:56.548Z,97834.70
2018-07-20T18:31:24.464Z,97833.41
2018-07-20T18:33:52.479Z,97836.63
2018-07-20T18:36:20.467Z,97837.71
2018-07-20T18:38:48.480Z,97842.34
2018-07-20T18:41:16.460Z,97850.38
2018-07-20T18:43:44.573Z,97852.45
2018-07-20T18:46:12.548Z,97862.39
2018-07-20T18:48:40.625Z,97843.04
2018-07-20T18:51:08.641Z,97851.21
2018-07-20T18:53:36.618Z,97856.75
2018-07-20T18:56:04.854Z,97849.91
2018-07-20T18:58:32.831Z,97848.51
2018-07-20T19:01:00.931Z,97859.00
2018-07-20T19:03:29.060Z,97854.62
2018-07-20T19:05:57.554Z,97852.90
2018-07-20T19:08:27.268Z,97861.95
2018-07-20T19:10:55.274Z,97855.58
2018-07-20T19:13:23.415Z,97863.45
2018-07-20T19:15:51.407Z,97860.28
2018-07-20T19:18:19.535Z,97866.92
2018-07-20T19:20:47.587Z,97863.87
2018-07-20T19:23:15.567Z,97865.40
2018-07-20T19:25:43.588Z,97880.75
2018-07-20T19:28:11.648Z,97883.53
2018-07-20T19:30:40.836Z,97890.06
2018-07-20T19:33:09.006Z,97891.72
2018-07-20T19:35:37.025Z,97893.39
2018-07-20T19:38:05.345Z,97891.26
2018-07-20T19:40:33.629Z,97892.20
2018-07-20T19:43:01.640Z,97897.81
2018-07-20T19:45:29.783Z,97890.66
2018-07-20T19:47:57.895Z,97896.84
2018-07-20T19:50:26.177Z,97896.57
2018-07-20T19:52:54.242Z,97893.31
2018-07-20T19:55:22.289Z,97892.30
2018-07-20T19:57:50.245Z,97883.59
2018-07-20T20:00:18.579Z,97888.37
2018-07-20T20:02:46.711Z,97889.59
2018-07-20T20:05:14.702Z,97881.81
2018-07-20T20:07:42.956Z,97876.63
2018-07-20T20:10:11.033Z,97879.21
2018-07-20T20:12:38.999Z,97879.81
2018-07-20T20:15:07.389Z,97883.80
2018-07-20T20:17:35.546Z,97888.53
2018-07-20T20:20:04.109Z,97894.05
2018-07-20T20:22:32.105Z,97888.63
2018-07-20T20:25:00.129Z,97886.50
2018-07-20T20:27:28.112Z,97901.69
2018-07-20T20:29:56.261Z,97903.86
2018-07-20T20:32:24.446Z,97898.75
2018-07-20T20:34:52.445Z,97899.00
2018-07-20T20:37:20.461Z,97901.94
2018-07-20T20:39:48.545Z,97900.47
2018-07-20T20:42:16.546Z,97895.23
2018-07-20T20:44:44.561Z,97903.77
2018-07-20T20:47:12.674Z,97903.57
2018-07-20T20:49:40.797Z,97905.48
2018-07-20T20:52:08.770Z,97901.09
2018-07-20T20:54:36.703Z,97908.79
2018-07-20T20:57:04.740Z,97905.23
2018-07-20T20:59:32.782Z,97912.81
2018-07-20T21:02:00.788Z,97915.41
2018-07-20T21:04:28.875Z,97917.95
2018-07-20T21:06:56.977Z,97922.98
2018-07-20T21:09:25.319Z,97924.44
2018-07-20T21:11:53.357Z,97922.69
2018-07-20T21:14:21.354Z,97925.20
2018-07-20T21:16:49.429Z,97932.93
2018-07-20T21:19:17.382Z,97921.84
2018-07-20T21:21:45.431Z,97930.00
2018-07-20T21:24:13.597Z,97921.63
2018-07-20T21:26:41.657Z,97928.49
2018-07-20T21:29:09.620Z,97923.47
2018-07-20T21:31:37.691Z,97920.13
2018-07-20T21:34:05.736Z,97926.17
2018-07-20T21:36:33.793Z,97929.23
2018-07-20T21:39:01.762Z,97924.50
2018-07-20T21:41:29.996Z,97924.04
2018-07-20T21:43:58.096Z,97927.04
2018-07-20T21:46:26.123Z,97915.90
2018-07-20T21:48:54.064Z,97928.45
2018-07-20T21:51:22.027Z,97919.21
2018-07-20T21:53:50.007Z,97935.58
2018-07-20T21:56:18.075Z,97925.58
2018-07-20T21:58:46.122Z,97913.44
2018-07-20T22:01:14.191Z,97919.45
2018-07-20T22:03:42.171Z,97912.08
2018-07-20T22:06:10.271Z,97900.17
2018-07-20T22:08:38.374Z,97932.91
2018-07-20T22:11:06.425Z,97905.40
2018-07-20T22:13:34.358Z,97918.45
2018-07-20T22:16:02.524Z,97893.72
2018-07-20T22:18:30.507Z,97909.55
2018-07-20T22:20:58.502Z,97892.48
2018-07-20T22:23:26.589Z,97921.91
2018-07-20T22:25:54.741Z,97881.56
2018-07-20T22:28:22.677Z,97903.34
2018-07-20T22:30:50.705Z,97900.96
2018-07-20T22:33:19.232Z,97899.62
2018-07-20T22:35:47.219Z,97909.03
2018-07-20T22:38:15.397Z,97893.81
2018-07-20T22:40:43.490Z,97897.95
2018-07-20T22:43:11.500Z,97903.52
2018-07-20T22:45:39.501Z,97904.65
2018-07-20T22:48:07.501Z,97892.23
2018-07-20T22:50:35.521Z,97895.88
2018-07-20T22:53:03.539Z,97916.20
2018-07-20T22:55:31.519Z,97927.91
2018-07-20T22:57:59.552Z,97905.70
2018-07-20T23:00:27.775Z,97911.80
2018-07-20T23:02:55.835Z,97906.92
2018-07-20T23:05:23.939Z,97899.52
2018-07-20T23:07:51.861Z,97927.53
2018-07-20T23:10:19.876Z,97915.53
2018-07-20T23:12:47.976Z,97913.41
2018-07-20T23:15:16.040Z,97909.05
2018-07-20T23:17:44.391Z,97911.94
2018-07-20T23:20:12.367Z,97915.41
2018-07-20T23:22:40.337Z,97917.17
2018-07-20T23:25:08.267Z,97899.98
2018-07-20T23:27:36.276Z,97922.09
2018-07-20T23:30:04.575Z,97927.91
2018-07-20T23:32:32.517Z,97903.73
2018-07-20T23:35:00.473Z,97909.63
2018-07-20T23:37:28.556Z,97907.84
2018-07-20T23:39:56.589Z,97913.18
2018-07-20T23:42:24.676Z,97919.48
2018-07-20T23:44:52.654Z,97910.88
2018-07-20T23:47:20.626Z,97908.86
2018-07-20T23:49:48.661Z,97912.87
2018-07-20T23:52:16.716Z,97903.85
2018-07-20T23:54:44.825Z,97901.00
2018-07-20T23:57:12.837Z,97893.98
2018-07-20T23:59:40.931Z,97892.43
